LJMB/MBX METAR and TAF weather

Enter ICAO airport designator
Station Type Date Time Source
LJMB METAR 2019/04/25 16:00 UTC NOAA

LJMB 251600Z 21013KT 180V240 CAVOK 22/08 Q1015


Station Type Date Time Source
LJMB Decoded METAR 2019/04/25 16:00 UTC NOAA

Maribor / Slivnica, Slovenia (LJMB) 46-29N 015-41E 265M
Apr 25, 2019 - 12:00 PM EDT / 2019.04.25 1600 UTC
Wind: from the SSW (210 degrees) at 15 MPH (13 KT) (direction variable):0
Visibility: greater than 7 mile(s):0
Temperature: 71 F (22 C)
Dew Point: 46 F (8 C)
Relative Humidity: 40%
Pressure (altimeter): 29.97 in. Hg (1015 hPa)
ob: LJMB 251600Z 21013KT 180V240 CAVOK 22/08 Q1015
cycle: 16

Station Type Date Time Source
LJMB TAF 2019/04/25 15:04 UTC NOAA

TAF LJMB 251400Z 2515/2615 21010KT 9999 FEW045
TEMPO 2515/2517 21015G25KT
BECMG 2518/2521 19005KT
BECMG 2607/2609 20010KT

Example: see airport list